createdAt,value
2019-04-11T00:02:44.839Z,6.42
2019-04-11T00:07:48.784Z,6.36
2019-04-11T00:12:51.603Z,6.28
2019-04-11T00:17:54.407Z,6.23
2019-04-11T00:22:57.622Z,6.16
2019-04-11T00:28:01.599Z,6.08
2019-04-11T00:33:05.627Z,5.91
2019-04-11T00:38:09.707Z,5.90
2019-04-11T00:43:12.757Z,5.80
2019-04-11T00:48:15.477Z,5.76
2019-04-11T00:53:19.025Z,5.66
2019-04-11T00:58:22.774Z,5.67
2019-04-11T01:03:26.432Z,5.52
2019-04-11T01:08:29.444Z,5.48
2019-04-11T01:13:41.550Z,5.43
2019-04-11T01:18:36.784Z,5.50
2019-04-11T01:23:39.517Z,5.40
2019-04-11T01:28:42.891Z,5.42
2019-04-11T01:33:46.344Z,5.39
2019-04-11T01:38:52.666Z,5.41
2019-04-11T01:44:01.786Z,5.32
2019-04-11T01:49:06.194Z,5.33
2019-04-11T01:54:08.972Z,5.30
2019-04-11T01:59:11.669Z,5.34
2019-04-11T02:04:38.506Z,5.32
2019-04-11T02:09:41.338Z,5.26
2019-04-11T02:14:44.038Z,5.27
2019-04-11T02:19:46.738Z,5.17
2019-04-11T02:25:09.089Z,5.13
2019-04-11T02:30:14.394Z,5.13
2019-04-11T02:35:17.699Z,5.03
2019-04-11T02:40:22.977Z,5.03
2019-04-11T02:45:39.832Z,5.08
2019-04-11T02:50:32.150Z,5.07
2019-04-11T02:55:35.757Z,5.04
2019-04-11T03:00:40.199Z,5.02
2019-04-11T03:05:44.124Z,4.97
2019-04-11T03:10:49.238Z,4.87
2019-04-11T03:16:07.154Z,4.81
2019-04-11T03:21:02.859Z,4.80
2019-04-11T03:26:03.237Z,4.74
2019-04-11T03:31:47.351Z,4.67
2019-04-11T03:37:12.017Z,4.56
2019-04-11T03:41:32.896Z,4.41
2019-04-11T03:46:37.633Z,4.42
2019-04-11T03:51:29.549Z,4.36
2019-04-11T03:56:32.957Z,4.29
2019-04-11T04:01:38.080Z,4.36
2019-04-11T04:06:41.518Z,4.32
2019-04-11T04:11:46.931Z,4.25
2019-04-11T04:17:11.038Z,4.23
2019-04-11T04:22:24.235Z,4.15
2019-04-11T04:27:30.319Z,4.13
2019-04-11T04:32:33.320Z,4.09
2019-04-11T04:37:38.912Z,4.14
2019-04-11T04:42:50.298Z,4.10
2019-04-11T04:47:56.605Z,3.97
2019-04-11T04:52:58.199Z,3.94
2019-04-11T04:58:02.851Z,4.01
2019-04-11T05:03:07.496Z,4.13
2019-04-11T05:08:11.135Z,4.10
2019-04-11T05:13:15.693Z,4.12
2019-04-11T05:18:20.730Z,4.29
2019-04-11T05:23:23.650Z,4.42
2019-04-11T05:28:27.678Z,4.47
2019-04-11T05:33:31.471Z,4.71
2019-04-11T05:38:34.387Z,4.76
2019-04-11T05:43:39.827Z,4.90
2019-04-11T05:49:00.450Z,5.13
2019-04-11T05:54:05.942Z,5.28
2019-04-11T05:59:15.136Z,5.50
2019-04-11T06:04:29.921Z,5.68
2019-04-11T06:09:35.963Z,5.84
2019-04-11T06:14:41.633Z,5.91
2019-04-11T06:20:03.976Z,6.19
2019-04-11T06:25:19.667Z,6.22
2019-04-11T06:30:40.378Z,6.41
2019-04-11T06:36:21.591Z,6.70
2019-04-11T06:41:50.590Z,6.88
2019-04-11T06:47:20.959Z,6.94
2019-04-11T06:52:24.639Z,7.35
2019-04-11T06:57:28.153Z,7.52
2019-04-11T07:02:32.208Z,7.46
2019-04-11T07:07:36.547Z,7.81
2019-04-11T07:12:53.034Z,7.89
2019-04-11T07:18:15.234Z,7.83
2019-04-11T07:23:38.341Z,7.90
2019-04-11T07:29:04.706Z,8.17
2019-04-11T07:34:32.649Z,8.34
2019-04-11T07:40:11.255Z,8.28
2019-04-11T07:45:18.458Z,8.32
2019-04-11T07:50:23.105Z,8.51
2019-04-11T07:55:27.935Z,8.64
2019-04-11T08:00:51.063Z,9.02
2019-04-11T08:06:11.323Z,8.94
2019-04-11T08:11:18.272Z,9.45
2019-04-11T08:16:53.280Z,9.70
2019-04-11T08:22:25.214Z,9.53
2019-04-11T08:27:31.681Z,9.83
2019-04-11T08:33:07.430Z,9.56
2019-04-11T08:38:16.455Z,10.35
2019-04-11T08:43:26.800Z,10.60
2019-04-11T08:48:31.062Z,10.47
2019-04-11T08:54:11.704Z,10.47
2019-04-11T08:59:45.993Z,10.56
2019-04-11T09:05:15.132Z,10.88
2019-04-11T09:10:49.148Z,11.11
2019-04-11T09:16:13.082Z,11.09
2019-04-11T09:21:42.440Z,11.87
2019-04-11T09:27:04.441Z,12.12
2019-04-11T09:32:26.604Z,11.96
2019-04-11T09:37:32.232Z,11.42
2019-04-11T09:42:57.604Z,11.21
2019-04-11T09:48:19.855Z,11.53
2019-04-11T09:53:23.213Z,11.65
2019-04-11T09:58:27.403Z,11.50
2019-04-11T10:03:32.110Z,11.96
2019-04-11T10:08:39.780Z,12.50
2019-04-11T10:13:55.299Z,12.02
2019-04-11T10:19:03.929Z,11.74
2019-04-11T10:24:26.277Z,11.80
2019-04-11T10:29:48.847Z,12.26
2019-04-11T10:35:24.013Z,12.52
2019-04-11T10:40:58.757Z,12.53
2019-04-11T10:46:19.728Z,12.07
2019-04-11T10:51:54.063Z,11.94
2019-04-11T10:57:15.948Z,11.95
2019-04-11T11:02:40.163Z,11.90
2019-04-11T11:07:44.661Z,11.66
2019-04-11T11:13:07.813Z,11.88
2019-04-11T11:18:48.065Z,12.23
2019-04-11T11:23:52.946Z,12.21
2019-04-11T11:29:21.063Z,12.27
2019-04-11T11:34:33.104Z,11.98
2019-04-11T11:40:02.704Z,11.58
2019-04-11T11:45:08.953Z,11.47
2019-04-11T11:50:17.940Z,11.70
2019-04-11T11:55:21.921Z,11.61
2019-04-11T12:00:27.208Z,11.94
2019-04-11T12:05:34.723Z,12.60
2019-04-11T12:10:59.796Z,12.49
2019-04-11T12:16:20.689Z,12.66
2019-04-11T12:21:27.860Z,12.60
2019-04-11T12:26:33.204Z,12.57
2019-04-11T12:31:37.097Z,12.85
2019-04-11T12:36:46.644Z,12.65
2019-04-11T12:41:57.739Z,12.58
2019-04-11T12:47:08.703Z,12.39
2019-04-11T12:52:29.735Z,12.33
2019-04-11T12:57:54.669Z,12.51
2019-04-11T13:03:16.048Z,12.46
2019-04-11T13:08:51.570Z,12.89
2019-04-11T13:14:21.315Z,13.02
2019-04-11T13:19:42.453Z,13.33
2019-04-11T13:25:12.353Z,12.84
2019-04-11T13:30:33.362Z,12.62
2019-04-11T13:36:04.601Z,12.76
2019-04-11T13:41:26.916Z,12.89
2019-04-11T13:46:48.033Z,12.77
2019-04-11T13:52:12.229Z,12.28
2019-04-11T13:57:46.263Z,11.85
2019-04-11T14:03:11.491Z,11.89
2019-04-11T14:08:18.025Z,12.39
2019-04-11T14:13:31.782Z,12.24
2019-04-11T14:18:54.168Z,12.61
2019-04-11T14:24:13.044Z,12.34
2019-04-11T14:29:33.570Z,12.22
2019-04-11T14:34:54.921Z,12.60
2019-04-11T14:40:05.969Z,13.34
2019-04-11T14:45:21.011Z,13.33
2019-04-11T14:50:26.659Z,12.99
2019-04-11T14:55:29.366Z,12.51
2019-04-11T15:00:34.093Z,12.41
2019-04-11T15:05:56.430Z,12.48
2019-04-11T15:11:09.722Z,12.49
2019-04-11T15:16:42.044Z,12.72
2019-04-11T15:22:06.291Z,12.67
2019-04-11T15:27:27.799Z,12.97
2019-04-11T15:32:50.605Z,12.84
2019-04-11T15:38:11.759Z,13.18
2019-04-11T15:43:33.704Z,13.07
2019-04-11T15:49:01.965Z,13.06
2019-04-11T15:54:27.565Z,12.50
2019-04-11T15:59:49.901Z,12.42
2019-04-11T16:05:10.643Z,12.05
2019-04-11T16:10:13.382Z,11.96
2019-04-11T16:15:16.069Z,11.90
2019-04-11T16:20:20.810Z,12.05
2019-04-11T16:25:23.835Z,12.08
2019-04-11T16:30:26.832Z,11.99
2019-04-11T16:35:35.865Z,11.66
2019-04-11T16:40:58.221Z,11.29
2019-04-11T16:46:15.583Z,11.28
2019-04-11T16:51:30.149Z,11.17
2019-04-11T16:56:22.943Z,11.03
2019-04-11T17:01:25.636Z,11.00
2019-04-11T17:06:55.548Z,11.00
2019-04-11T17:11:58.377Z,10.91
2019-04-11T17:17:01.535Z,10.83
2019-04-11T17:22:04.557Z,10.72
2019-04-11T17:27:07.258Z,10.68
2019-04-11T17:32:10.129Z,10.73
2019-04-11T17:37:13.013Z,10.77
2019-04-11T17:42:15.796Z,10.53
2019-04-11T17:47:18.503Z,10.30
2019-04-11T17:52:21.332Z,10.36
2019-04-11T17:57:26.789Z,10.22
2019-04-11T18:02:28.878Z,10.02
2019-04-11T18:07:31.597Z,9.98
2019-04-11T18:12:34.388Z,10.04
2019-04-11T18:17:37.088Z,9.96
2019-04-11T18:22:39.931Z,9.84
2019-04-11T18:27:42.731Z,9.80
2019-04-11T18:32:45.505Z,9.61
2019-04-11T18:37:48.233Z,9.75
2019-04-11T18:42:50.941Z,9.55
2019-04-11T18:47:53.641Z,9.56
2019-04-11T18:52:59.182Z,9.60
2019-04-11T18:58:01.698Z,9.49
2019-04-11T19:03:08.028Z,9.47
2019-04-11T19:08:13.177Z,9.55
2019-04-11T19:13:16.953Z,9.58
2019-04-11T19:18:20.267Z,9.43
2019-04-11T19:23:23.090Z,9.36
2019-04-11T19:28:26.717Z,9.47
2019-04-11T19:33:29.403Z,9.54
2019-04-11T19:38:33.978Z,9.33
2019-04-11T19:43:36.679Z,9.51
2019-04-11T19:48:39.370Z,9.41
2019-04-11T19:53:42.069Z,9.32
2019-04-11T19:58:44.774Z,9.23
2019-04-11T20:03:47.731Z,9.23
2019-04-11T20:08:50.432Z,9.25
2019-04-11T20:13:53.225Z,9.11
2019-04-11T20:18:57.480Z,8.99
2019-04-11T20:24:00.551Z,8.93
2019-04-11T20:29:03.437Z,8.87
2019-04-11T20:34:07.298Z,8.89
2019-04-11T20:39:14.895Z,8.87
2019-04-11T20:44:15.443Z,8.95
2019-04-11T20:49:18.159Z,8.89
2019-04-11T20:54:20.856Z,8.84
2019-04-11T20:59:34.069Z,8.92
2019-04-11T21:04:28.155Z,8.66
2019-04-11T21:09:33.016Z,8.79
2019-04-11T21:14:35.480Z,8.72
2019-04-11T21:19:38.178Z,8.96
2019-04-11T21:24:40.917Z,8.72
2019-04-11T21:29:43.663Z,8.58
2019-04-11T21:34:46.361Z,8.57
2019-04-11T21:39:49.047Z,8.72
2019-04-11T21:44:51.744Z,8.65
2019-04-11T21:49:54.459Z,8.63
2019-04-11T21:54:57.174Z,8.55
2019-04-11T22:00:01.561Z,8.45
2019-04-11T22:05:05.113Z,8.65
2019-04-11T22:10:08.609Z,8.77
2019-04-11T22:15:12.587Z,8.57
2019-04-11T22:20:16.757Z,8.64
2019-04-11T22:25:20.023Z,8.30
2019-04-11T22:30:25.064Z,8.22
2019-04-11T22:35:29.100Z,8.27
2019-04-11T22:40:32.430Z,8.18
2019-04-11T22:45:37.644Z,8.10
2019-04-11T22:50:40.673Z,8.21
2019-04-11T22:55:44.086Z,8.18
2019-04-11T23:00:46.769Z,8.07
2019-04-11T23:05:49.471Z,7.99
2019-04-11T23:10:52.166Z,8.05
2019-04-11T23:15:54.975Z,8.08
2019-04-11T23:20:57.666Z,8.12
2019-04-11T23:26:00.359Z,7.98
2019-04-11T23:31:03.151Z,7.98
2019-04-11T23:36:05.958Z,8.07
2019-04-11T23:41:08.654Z,7.90
2019-04-11T23:46:11.348Z,7.99
2019-04-11T23:51:14.032Z,7.97
2019-04-11T23:56:16.712Z,8.02
